CYCBCYHK

Guest
Details From CYCB - CAMBRIDGE BAY
To CYHK - Gjoa Haven
Flight Number -
Tags generated
Created
Modified
Stats Distance 203 nm / 377 km
Max Altitude 1,700 ft / 518 m
Waypoints 4
Social Downloads 1
Likes 0
Share VATSIM

Download

Looking for another format? Having issues loading an existing format? Contact us
Advertisement - Login to hide

Notes

Basic altitude profile: - Ascent Rate: 300ft/min - Ascent Speed: 150kts - Cruise Altitude: 6000ft - Cruise Speed: 200kts - Descent Rate: 600ft/min - Descent Speed: 150kts Options: - Use NATs: yes - Use PACOTS: yes - Use low airways: yes - Use high airways: no

Route

CYCB CB RR30 YHK CYHK

ID Type Via Altitude Latitude Longitude Leg Dist Tot Dist Heading (true) Name
O CYCB APT - 0 ft / 0 m 69.10806˚ -105.13833˚ - 0 nm - CAMBRIDGE BAY
CB NDB - 900 ft / 274 m 69.11478˚ -105.01592˚ 2 nm 2 nm 81° / 81° CAMBRIDGE BAY NDB
YHK NDB RR30 (AWY-LO) 1,700 ft / 518 m 68.62611˚ -95.85833˚ 200 nm 202 nm 94° / 103° GJOA HAVEN NDB
O CYHK APT - 0 ft / 0 m 68.63545˚ -95.85024˚ 0 nm 203 nm 18° / 18° Gjoa Haven

Altitude Profile

Advertisement - Login to hide

Weather


0- 5 10 15 20 25 30 35+ Temperature / ° C

Clouds and Precipitation
Forecast for 2017-12-13 12:00 UTC. Updated 30 minutes ago

Ground ~20,000 ft ~40,000 ft Winds

CYCB

Details ICAO CYCB (YCB)
Name CAMBRIDGE BAY
Region Canada
Timezone America/Cambridge_Bay (UTC-7.0)
Stats Elevation 90 ft / 27 m (AMSL)
Location 69.108056° -105.138334°
Runways 1
Magnetic Variation 6.950° E

METAR

CYCB 130700Z 28011KT 12SM -SN DRSN FEW003 OVC007 M24/M27 A2998 RMK SF2SC6 SLP157

Decode

TAF

TAF TAF CYCB 130638Z 1307/1319 28012KT P6SM -SN OVC007 TEMPO 1307/1319 11/2SM -SN BR BKN003 OVC007 RMK NXT FCST BY 131300Z

Decode

Departure Runways

ID Width Length Bearing (true) Bearing (mag) Surface Threshold Offset Overrun Length
13T 150 ft / 46 m 5,006 ft / 1,526 m 127.39° 120.44° Gravel 0 ft / 0 m 0 ft / 0 m
31T 150 ft / 46 m 5,006 ft / 1,526 m 307.42° 300.47° Gravel 0 ft / 0 m 100 ft / 30 m

CYHK

Details ICAO CYHK (YHK)
Name Gjoa Haven
Region Canada
Timezone America/Cambridge_Bay (UTC-7.0)
Stats Elevation 154 ft / 47 m (AMSL)
Location 68.635447° -95.850245°
Runways 1
Magnetic Variation 7.304° W

METAR

CYHK 130728Z AUTO 31014KT 1SM -SN BKN006 OVC013 M20/M22 A2981 RMK SLP102

Decode

TAF

TAF CYHK 130538Z 1306/1318 30012KT 1SM -SN OVC008 TEMPO 1306/1318 5SM BR OVC020 RMK FCST BASED ON AUTO OBS. NXT FCST BY 131200Z

Decode

Destination Runways

ID Width Length Bearing (true) Bearing (mag) Surface Threshold Offset Overrun Length
13T 98 ft / 30 m 4,465 ft / 1,361 m 126.79° 134.09° Gravel 0 ft / 0 m 0 ft / 0 m
31T 98 ft / 30 m 4,465 ft / 1,361 m 306.81° 314.11° Gravel 0 ft / 0 m 0 ft / 0 m

Popular Alternatives